createdAt,value
2016-08-19T00:02:40.609Z,13.57
2016-08-19T00:13:41.244Z,14.36
2016-08-19T00:23:41.850Z,21.31
2016-08-19T00:41:42.808Z,15.69
2016-08-19T00:49:43.297Z,16.32
2016-08-19T00:59:43.774Z,11.44
2016-08-19T01:05:44.124Z,12.80
2016-08-19T01:11:44.479Z,12.20
2016-08-19T01:25:45.242Z,13.32
2016-08-19T01:31:45.518Z,12.96
2016-08-19T01:37:45.865Z,12.16
2016-08-19T01:45:46.366Z,15.39
2016-08-19T01:51:46.679Z,11.69
2016-08-19T02:03:47.317Z,13.09
2016-08-19T02:09:47.649Z,19.22
2016-08-19T02:18:48.171Z,13.90
2016-08-19T02:28:48.706Z,15.23
2016-08-19T02:34:49.018Z,14.02
2016-08-19T02:45:49.632Z,12.05
2016-08-19T02:51:49.971Z,10.52
2016-08-19T02:57:50.307Z,7.54
2016-08-19T03:09:51.004Z,16.51
2016-08-19T03:15:51.332Z,51.57
2016-08-19T03:21:51.690Z,93.34
2016-08-19T03:27:52.079Z,99.76
2016-08-19T03:33:52.407Z,100.00
2016-08-19T03:39:52.791Z,100.00
2016-08-19T03:48:53.257Z,81.44
2016-08-19T03:59:10.568Z,73.61
2016-08-19T04:05:10.180Z,100.00
2016-08-19T04:11:10.367Z,100.00
2016-08-19T04:17:10.788Z,97.00
2016-08-19T04:23:11.216Z,78.46
2016-08-19T04:29:11.701Z,83.35
2016-08-19T04:35:12.159Z,26.26
2016-08-19T04:41:12.596Z,0.00
2016-08-19T04:47:13.018Z,0.00
2016-08-19T04:53:13.501Z,0.00
2016-08-19T04:59:13.951Z,0.00
2016-08-19T05:05:14.444Z,0.00
2016-08-19T05:11:14.915Z,0.00
2016-08-19T05:17:15.301Z,0.00
2016-08-19T05:23:15.754Z,0.00
2016-08-19T05:29:16.233Z,0.00
2016-08-19T05:35:16.696Z,0.00
2016-08-19T05:41:17.180Z,0.00
2016-08-19T05:47:17.560Z,0.00
2016-08-19T05:53:18.065Z,0.00
2016-08-19T05:59:18.456Z,0.00
2016-08-19T06:05:18.998Z,0.00
2016-08-19T06:11:19.462Z,0.00
2016-08-19T06:17:19.890Z,0.00
2016-08-19T06:23:20.246Z,0.00
2016-08-19T06:29:20.655Z,0.00
2016-08-19T06:35:21.103Z,0.00
2016-08-19T06:41:21.575Z,0.00
2016-08-19T06:47:21.986Z,0.00
2016-08-19T06:53:22.472Z,0.00
2016-08-19T07:18:24.430Z,0.02
2016-08-19T07:24:24.871Z,0.03
2016-08-19T07:30:25.258Z,0.01
2016-08-19T07:36:25.721Z,0.01
2016-08-19T07:42:26.205Z,0.02
2016-08-19T07:48:26.670Z,0.01
2016-08-19T07:54:27.070Z,0.01
2016-08-19T08:00:27.546Z,0.00
2016-08-19T08:06:28.021Z,0.00
2016-08-19T08:12:28.492Z,0.00
2016-08-19T08:18:28.967Z,0.01
2016-08-19T08:24:29.335Z,0.02
2016-08-19T08:30:29.900Z,0.00
2016-08-19T08:36:30.247Z,0.00
2016-08-19T08:42:30.677Z,0.00
2016-08-19T08:48:31.175Z,0.00
2016-08-19T08:54:31.651Z,0.08
2016-08-19T09:00:32.070Z,0.19
2016-08-19T09:06:32.507Z,0.13
2016-08-19T09:12:32.960Z,0.00
2016-08-19T09:18:33.482Z,0.02
2016-08-19T09:24:33.930Z,0.04
2016-08-19T09:30:34.329Z,0.01
2016-08-19T09:36:34.843Z,0.00
2016-08-19T09:42:35.249Z,0.29
2016-08-19T09:48:35.708Z,2.18
2016-08-19T09:54:36.256Z,0.69
2016-08-19T10:00:36.676Z,0.01
2016-08-19T10:06:37.160Z,3.73
2016-08-19T10:12:37.588Z,5.07
2016-08-19T10:18:38.089Z,5.25
2016-08-19T10:24:38.476Z,5.91
2016-08-19T10:30:38.950Z,6.19
2016-08-19T10:36:39.503Z,6.41
2016-08-19T10:42:39.883Z,6.85
2016-08-19T10:50:40.501Z,8.55
2016-08-19T10:56:40.978Z,10.31
2016-08-19T11:02:41.484Z,11.03
2016-08-19T11:08:41.901Z,11.40
2016-08-19T11:14:42.351Z,11.62
2016-08-19T11:20:42.751Z,20.58
2016-08-19T11:26:43.246Z,61.51
2016-08-19T11:32:43.669Z,71.21
2016-08-19T11:38:44.168Z,24.63
2016-08-19T11:44:44.552Z,23.70
2016-08-19T11:50:45.028Z,59.28
2016-08-19T11:56:45.533Z,83.21
2016-08-19T12:02:45.916Z,78.51
2016-08-19T12:08:46.382Z,69.79
2016-08-19T12:14:46.801Z,21.74
2016-08-19T12:20:47.253Z,20.69
2016-08-19T12:26:47.701Z,16.88
2016-08-19T12:32:48.197Z,13.69
2016-08-19T12:38:48.658Z,15.30
2016-08-19T12:44:49.062Z,9.34
2016-08-19T12:50:49.535Z,7.41
2016-08-19T12:56:50.056Z,6.50
2016-08-19T13:02:50.462Z,4.93
2016-08-19T13:08:50.990Z,2.72
2016-08-19T13:14:51.377Z,0.60
2016-08-19T13:20:51.866Z,0.14
2016-08-19T13:26:52.262Z,1.35
2016-08-19T13:32:52.772Z,0.70
2016-08-19T13:38:53.221Z,3.64
2016-08-19T13:44:53.644Z,9.38
2016-08-19T13:50:54.168Z,9.85
2016-08-19T13:56:54.660Z,8.68
2016-08-19T14:02:55.046Z,10.97
2016-08-19T14:08:55.506Z,39.93
2016-08-19T14:14:55.959Z,22.08
2016-08-19T14:20:56.497Z,38.60
2016-08-19T14:26:56.920Z,50.16
2016-08-19T14:32:57.368Z,60.98
2016-08-19T14:38:57.756Z,55.75
2016-08-19T14:44:58.210Z,39.48
2016-08-19T14:50:58.657Z,42.02
2016-08-19T14:56:59.199Z,52.39
2016-08-19T15:02:59.559Z,76.42
2016-08-19T15:08:59.998Z,75.99
2016-08-19T15:15:00.456Z,83.73
2016-08-19T15:21:00.973Z,85.25
2016-08-19T15:27:01.381Z,85.81
2016-08-19T15:33:01.828Z,86.43
2016-08-19T15:39:02.292Z,86.45
2016-08-19T15:45:02.730Z,87.69
2016-08-19T15:51:03.248Z,88.29
2016-08-19T15:57:03.634Z,88.74
2016-08-19T16:03:04.139Z,89.37
